sensor_id;sensor_type;location;lat;lon;timestamp;pressure;altitude;pressure_sealevel;temperature;humidity
13486;BME280;6815;59.336;17.998;2023-02-13T00:01:03;52256.84;;;-145.37;95.13
13486;BME280;6815;59.336;17.998;2023-02-13T00:03:29;52286.78;;;-145.37;95.03
13486;BME280;6815;59.336;17.998;2023-02-13T00:05:54;52182.97;;;-145.37;94.95
13486;BME280;6815;59.336;17.998;2023-02-13T00:08:20;52226.91;;;-145.37;94.84
13486;BME280;6815;59.336;17.998;2023-02-13T00:10:46;52212.91;;;-145.37;94.90
13486;BME280;6815;59.336;17.998;2023-02-13T00:13:12;52286.78;;;-145.37;94.80
13486;BME280;6815;59.336;17.998;2023-02-13T00:15:37;52242.88;;;-145.37;95.00
13486;BME280;6815;59.336;17.998;2023-02-13T00:18:03;52184.97;;;-145.37;95.25
13486;BME280;6815;59.336;17.998;2023-02-13T00:20:28;52220.91;;;-145.37;95.17
13486;BME280;6815;59.336;17.998;2023-02-13T00:22:54;52220.91;;;-145.37;95.48
13486;BME280;6815;59.336;17.998;2023-02-13T00:25:19;52214.91;;;-145.37;95.12
13486;BME280;6815;59.336;17.998;2023-02-13T00:27:45;52212.91;;;-145.37;95.03
13486;BME280;6815;59.336;17.998;2023-02-13T00:30:11;52202.94;;;-145.37;95.38
13486;BME280;6815;59.336;17.998;2023-02-13T00:32:36;52216.91;;;-145.37;95.40
13486;BME280;6815;59.336;17.998;2023-02-13T00:35:02;52276.81;;;-145.37;95.40
13486;BME280;6815;59.336;17.998;2023-02-13T00:37:28;52224.91;;;-145.37;95.09
13486;BME280;6815;59.336;17.998;2023-02-13T00:39:54;52250.84;;;-145.37;94.56
13486;BME280;6815;59.336;17.998;2023-02-13T00:42:20;52252.84;;;-145.37;94.56
13486;BME280;6815;59.336;17.998;2023-02-13T00:44:48;52258.84;;;-145.37;94.93
13486;BME280;6815;59.336;17.998;2023-02-13T00:47:13;52192.97;;;-145.37;94.84
13486;BME280;6815;59.336;17.998;2023-02-13T00:49:39;52232.88;;;-145.37;94.84
13486;BME280;6815;59.336;17.998;2023-02-13T00:52:05;52222.91;;;-145.37;94.91
13486;BME280;6815;59.336;17.998;2023-02-13T00:54:31;52214.91;;;-145.37;95.01
13486;BME280;6815;59.336;17.998;2023-02-13T00:56:56;52226.91;;;-145.37;94.72
13486;BME280;6815;59.336;17.998;2023-02-13T00:59:22;52256.84;;;-145.37;94.65
13486;BME280;6815;59.336;17.998;2023-02-13T01:01:50;52268.81;;;-145.37;94.71
13486;BME280;6815;59.336;17.998;2023-02-13T01:04:15;52250.84;;;-145.37;94.58
13486;BME280;6815;59.336;17.998;2023-02-13T01:06:41;52200.94;;;-145.37;94.61
13486;BME280;6815;59.336;17.998;2023-02-13T01:09:08;52246.84;;;-145.37;94.73
13486;BME280;6815;59.336;17.998;2023-02-13T01:11:34;52214.91;;;-145.37;94.85
13486;BME280;6815;59.336;17.998;2023-02-13T01:14:00;52226.91;;;-145.37;94.86
13486;BME280;6815;59.336;17.998;2023-02-13T01:16:25;52276.81;;;-145.37;94.75
13486;BME280;6815;59.336;17.998;2023-02-13T01:18:51;52234.88;;;-145.37;94.91
13486;BME280;6815;59.336;17.998;2023-02-13T01:21:19;52202.94;;;-145.37;94.84
13486;BME280;6815;59.336;17.998;2023-02-13T01:23:45;52240.88;;;-145.37;94.77
13486;BME280;6815;59.336;17.998;2023-02-13T01:26:20;52238.88;;;-145.37;94.92
13486;BME280;6815;59.336;17.998;2023-02-13T01:28:46;52210.91;;;-145.37;95.17
13486;BME280;6815;59.336;17.998;2023-02-13T01:31:11;52210.91;;;-145.37;94.96
13486;BME280;6815;59.336;17.998;2023-02-13T01:33:37;52234.88;;;-145.37;95.19
13486;BME280;6815;59.336;17.998;2023-02-13T01:36:10;52248.84;;;-145.37;94.95
13486;BME280;6815;59.336;17.998;2023-02-13T01:38:36;52242.88;;;-145.37;94.64
13486;BME280;6815;59.336;17.998;2023-02-13T01:41:02;52254.84;;;-145.37;95.01
13486;BME280;6815;59.336;17.998;2023-02-13T01:43:47;52220.91;;;-145.37;95.34
13486;BME280;6815;59.336;17.998;2023-02-13T01:46:28;52184.97;;;-145.37;95.27
13486;BME280;6815;59.336;17.998;2023-02-13T01:48:59;52208.94;;;-145.37;94.90
13486;BME280;6815;59.336;17.998;2023-02-13T01:51:31;52222.91;;;-145.37;94.81
13486;BME280;6815;59.336;17.998;2023-02-13T01:54:12;52222.91;;;-145.37;94.74
13486;BME280;6815;59.336;17.998;2023-02-13T01:56:48;52240.88;;;-145.37;94.55
13486;BME280;6815;59.336;17.998;2023-02-13T01:59:22;52254.84;;;-145.37;94.53
13486;BME280;6815;59.336;17.998;2023-02-13T02:01:49;52256.84;;;-145.37;94.64
13486;BME280;6815;59.336;17.998;2023-02-13T02:04:25;52204.94;;;-145.37;94.35
13486;BME280;6815;59.336;17.998;2023-02-13T02:06:58;52230.88;;;-145.37;94.86
13486;BME280;6815;59.336;17.998;2023-02-13T02:09:29;52254.84;;;-145.37;94.88
13486;BME280;6815;59.336;17.998;2023-02-13T02:14:42;52254.84;;;-145.37;95.10
13486;BME280;6815;59.336;17.998;2023-02-13T02:17:08;52232.88;;;-145.37;95.15
13486;BME280;6815;59.336;17.998;2023-02-13T02:30:27;52220.91;;;-145.37;94.72
13486;BME280;6815;59.336;17.998;2023-02-13T02:33:17;52224.91;;;-145.37;95.16
13486;BME280;6815;59.336;17.998;2023-02-13T02:38:39;52192.97;;;-145.37;95.23
13486;BME280;6815;59.336;17.998;2023-02-13T02:44:17;52244.84;;;-145.37;94.87
13486;BME280;6815;59.336;17.998;2023-02-13T02:46:57;52242.88;;;-145.37;94.85
13486;BME280;6815;59.336;17.998;2023-02-13T02:49:50;52218.91;;;-145.37;94.90
13486;BME280;6815;59.336;17.998;2023-02-13T02:52:41;52244.84;;;-145.37;94.42
13486;BME280;6815;59.336;17.998;2023-02-13T02:55:35;52232.88;;;-145.37;94.58
13486;BME280;6815;59.336;17.998;2023-02-13T03:00:48;52324.72;;;-145.37;94.45
13486;BME280;6815;59.336;17.998;2023-02-13T03:03:33;52226.91;;;-145.37;94.50
13486;BME280;6815;59.336;17.998;2023-02-13T03:06:26;52202.94;;;-145.37;94.56
13486;BME280;6815;59.336;17.998;2023-02-13T03:09:00;52202.94;;;-145.37;94.58
13486;BME280;6815;59.336;17.998;2023-02-13T03:11:48;52216.91;;;-145.37;94.89
13486;BME280;6815;59.336;17.998;2023-02-13T03:14:33;52175.00;;;-145.37;94.30
13486;BME280;6815;59.336;17.998;2023-02-13T03:17:01;52266.81;;;-145.37;94.40
13486;BME280;6815;59.336;17.998;2023-02-13T03:20:07;52248.84;;;-145.37;94.56
13486;BME280;6815;59.336;17.998;2023-02-13T03:25:37;52206.94;;;-145.37;94.21
13486;BME280;6815;59.336;17.998;2023-02-13T03:28:16;52242.88;;;-145.37;94.04
13486;BME280;6815;59.336;17.998;2023-02-13T03:36:28;52242.88;;;-145.37;94.14
13486;BME280;6815;59.336;17.998;2023-02-13T03:39:26;52212.91;;;-145.37;94.04
13486;BME280;6815;59.336;17.998;2023-02-13T03:42:05;52200.94;;;-145.37;93.90
13486;BME280;6815;59.336;17.998;2023-02-13T03:44:36;52194.94;;;-145.37;94.14
13486;BME280;6815;59.336;17.998;2023-02-13T03:47:04;52228.88;;;-145.37;94.13
13486;BME280;6815;59.336;17.998;2023-02-13T03:49:45;52204.94;;;-145.37;93.94
13486;BME280;6815;59.336;17.998;2023-02-13T03:52:57;52224.91;;;-145.37;93.79
13486;BME280;6815;59.336;17.998;2023-02-13T03:55:28;52222.91;;;-145.37;93.72
13486;BME280;6815;59.336;17.998;2023-02-13T03:58:26;52242.88;;;-145.37;93.67
13486;BME280;6815;59.336;17.998;2023-02-13T04:01:13;52228.88;;;-145.37;93.47
13486;BME280;6815;59.336;17.998;2023-02-13T04:06:47;52256.84;;;-145.37;93.53
13486;BME280;6815;59.336;17.998;2023-02-13T04:09:14;52214.91;;;-145.37;94.36
13486;BME280;6815;59.336;17.998;2023-02-13T04:17:12;52192.97;;;-145.37;94.10
13486;BME280;6815;59.336;17.998;2023-02-13T04:19:39;52238.88;;;-145.37;93.78
13486;BME280;6815;59.336;17.998;2023-02-13T04:22:05;52216.91;;;-145.37;93.84
13486;BME280;6815;59.336;17.998;2023-02-13T04:24:31;52224.91;;;-145.37;93.78
13486;BME280;6815;59.336;17.998;2023-02-13T04:26:56;52212.91;;;-145.37;93.87
13486;BME280;6815;59.336;17.998;2023-02-13T04:29:23;52196.94;;;-145.37;94.01
13486;BME280;6815;59.336;17.998;2023-02-13T04:31:48;52242.88;;;-145.37;93.65
13486;BME280;6815;59.336;17.998;2023-02-13T04:34:14;52218.91;;;-145.37;93.62
13486;BME280;6815;59.336;17.998;2023-02-13T04:36:40;52244.84;;;-145.37;93.33
13486;BME280;6815;59.336;17.998;2023-02-13T04:39:05;52214.91;;;-145.37;93.64
13486;BME280;6815;59.336;17.998;2023-02-13T04:41:31;52232.88;;;-145.37;93.53
13486;BME280;6815;59.336;17.998;2023-02-13T04:43:56;52212.91;;;-145.37;93.39
13486;BME280;6815;59.336;17.998;2023-02-13T04:46:22;52234.88;;;-145.37;93.44
13486;BME280;6815;59.336;17.998;2023-02-13T04:48:49;52216.91;;;-145.37;93.27
13486;BME280;6815;59.336;17.998;2023-02-13T04:51:14;52218.91;;;-145.37;93.20
13486;BME280;6815;59.336;17.998;2023-02-13T04:53:40;52198.94;;;-145.37;93.02
13486;BME280;6815;59.336;17.998;2023-02-13T04:56:05;52204.94;;;-145.37;93.15
13486;BME280;6815;59.336;17.998;2023-02-13T04:58:31;52234.88;;;-145.37;93.13
13486;BME280;6815;59.336;17.998;2023-02-13T05:00:56;52224.91;;;-145.37;93.31
13486;BME280;6815;59.336;17.998;2023-02-13T05:03:22;52256.84;;;-145.37;93.50
13486;BME280;6815;59.336;17.998;2023-02-13T05:05:48;52212.91;;;-145.37;93.38
13486;BME280;6815;59.336;17.998;2023-02-13T05:08:13;52216.91;;;-145.37;93.47
13486;BME280;6815;59.336;17.998;2023-02-13T05:10:39;52234.88;;;-145.37;93.53
13486;BME280;6815;59.336;17.998;2023-02-13T05:13:04;52220.91;;;-145.37;93.68
13486;BME280;6815;59.336;17.998;2023-02-13T05:15:30;52224.91;;;-145.37;93.75
13486;BME280;6815;59.336;17.998;2023-02-13T05:17:55;52234.88;;;-145.37;93.31
13486;BME280;6815;59.336;17.998;2023-02-13T05:20:21;52248.84;;;-145.37;93.39
13486;BME280;6815;59.336;17.998;2023-02-13T05:22:51;52240.88;;;-145.37;93.36
13486;BME280;6815;59.336;17.998;2023-02-13T05:25:38;52256.84;;;-145.37;93.41
13486;BME280;6815;59.336;17.998;2023-02-13T05:28:04;52196.94;;;-145.37;93.08
13486;BME280;6815;59.336;17.998;2023-02-13T05:30:29;52220.91;;;-145.37;93.17
13486;BME280;6815;59.336;17.998;2023-02-13T05:32:55;52264.81;;;-145.37;93.27
13486;BME280;6815;59.336;17.998;2023-02-13T05:35:21;52234.88;;;-145.37;93.58
13486;BME280;6815;59.336;17.998;2023-02-13T05:37:47;52232.88;;;-145.37;93.55
13486;BME280;6815;59.336;17.998;2023-02-13T05:40:13;52238.88;;;-145.37;93.30
13486;BME280;6815;59.336;17.998;2023-02-13T05:42:40;52282.78;;;-145.37;93.65
13486;BME280;6815;59.336;17.998;2023-02-13T05:45:06;52212.91;;;-145.37;93.62
13486;BME280;6815;59.336;17.998;2023-02-13T05:47:32;52210.91;;;-145.37;93.75
13486;BME280;6815;59.336;17.998;2023-02-13T05:49:58;52260.84;;;-145.37;93.75
13486;BME280;6815;59.336;17.998;2023-02-13T05:52:24;52240.88;;;-145.37;93.39
13486;BME280;6815;59.336;17.998;2023-02-13T05:54:49;52169.00;;;-145.37;93.73
13486;BME280;6815;59.336;17.998;2023-02-13T05:57:15;52204.94;;;-145.37;94.12
13486;BME280;6815;59.336;17.998;2023-02-13T05:59:40;52224.91;;;-145.37;93.88
13486;BME280;6815;59.336;17.998;2023-02-13T06:02:06;52204.94;;;-145.37;93.90
13486;BME280;6815;59.336;17.998;2023-02-13T06:04:31;52192.97;;;-145.37;93.96
13486;BME280;6815;59.336;17.998;2023-02-13T06:06:58;52192.97;;;-145.37;93.88
13486;BME280;6815;59.336;17.998;2023-02-13T06:09:26;52238.88;;;-145.37;94.05
13486;BME280;6815;59.336;17.998;2023-02-13T06:11:51;52165.00;;;-145.37;93.84
13486;BME280;6815;59.336;17.998;2023-02-13T06:14:17;52198.94;;;-145.37;93.78
13486;BME280;6815;59.336;17.998;2023-02-13T06:16:43;52248.84;;;-145.37;93.73
13486;BME280;6815;59.336;17.998;2023-02-13T06:19:09;52246.84;;;-145.37;93.86
13486;BME280;6815;59.336;17.998;2023-02-13T06:21:39;52192.97;;;-145.37;93.86
13486;BME280;6815;59.336;17.998;2023-02-13T06:24:05;52218.91;;;-145.37;93.90
13486;BME280;6815;59.336;17.998;2023-02-13T06:26:31;52226.91;;;-145.37;93.82
13486;BME280;6815;59.336;17.998;2023-02-13T06:28:57;52266.81;;;-145.37;94.04
13486;BME280;6815;59.336;17.998;2023-02-13T06:31:22;52248.84;;;-145.37;93.85
13486;BME280;6815;59.336;17.998;2023-02-13T06:33:48;52222.91;;;-145.37;93.79
13486;BME280;6815;59.336;17.998;2023-02-13T06:36:13;52234.88;;;-145.37;94.35
13486;BME280;6815;59.336;17.998;2023-02-13T06:38:39;52216.91;;;-145.37;94.10
13486;BME280;6815;59.336;17.998;2023-02-13T06:41:05;52206.94;;;-145.37;93.97
13486;BME280;6815;59.336;17.998;2023-02-13T06:43:31;52260.84;;;-145.37;93.98
13486;BME280;6815;59.336;17.998;2023-02-13T06:45:57;52234.88;;;-145.37;93.58
13486;BME280;6815;59.336;17.998;2023-02-13T06:48:22;52200.94;;;-145.37;93.76
13486;BME280;6815;59.336;17.998;2023-02-13T06:50:55;52173.00;;;-145.37;93.79
13486;BME280;6815;59.336;17.998;2023-02-13T06:53:29;52234.88;;;-145.37;93.92
13486;BME280;6815;59.336;17.998;2023-02-13T06:55:56;52230.88;;;-145.37;93.76
13486;BME280;6815;59.336;17.998;2023-02-13T06:58:23;52216.91;;;-145.37;93.67
13486;BME280;6815;59.336;17.998;2023-02-13T07:00:49;52250.84;;;-145.37;93.84
13486;BME280;6815;59.336;17.998;2023-02-13T07:03:15;52252.84;;;-145.37;93.71
13486;BME280;6815;59.336;17.998;2023-02-13T07:05:42;52240.88;;;-145.37;93.73
13486;BME280;6815;59.336;17.998;2023-02-13T07:08:09;52222.91;;;-145.37;93.92
13486;BME280;6815;59.336;17.998;2023-02-13T07:10:52;52234.88;;;-145.37;94.03
13486;BME280;6815;59.336;17.998;2023-02-13T07:13:17;52194.94;;;-145.37;94.15
13486;BME280;6815;59.336;17.998;2023-02-13T07:15:43;52230.88;;;-145.37;93.96
13486;BME280;6815;59.336;17.998;2023-02-13T07:18:08;52260.84;;;-145.37;93.90
13486;BME280;6815;59.336;17.998;2023-02-13T07:20:34;52224.91;;;-145.37;93.56
13486;BME280;6815;59.336;17.998;2023-02-13T07:23:02;52232.88;;;-145.37;93.45
13486;BME280;6815;59.336;17.998;2023-02-13T07:25:28;52274.81;;;-145.37;93.50
13486;BME280;6815;59.336;17.998;2023-02-13T07:27:54;52246.84;;;-145.37;93.54
13486;BME280;6815;59.336;17.998;2023-02-13T07:30:20;52214.91;;;-145.37;93.48
13486;BME280;6815;59.336;17.998;2023-02-13T07:32:45;52248.84;;;-145.37;93.73
13486;BME280;6815;59.336;17.998;2023-02-13T07:35:11;52246.84;;;-145.37;93.67
13486;BME280;6815;59.336;17.998;2023-02-13T07:37:37;52202.94;;;-145.37;93.63
13486;BME280;6815;59.336;17.998;2023-02-13T07:40:03;52236.88;;;-145.37;93.16
13486;BME280;6815;59.336;17.998;2023-02-13T07:42:32;52240.88;;;-145.37;93.22
13486;BME280;6815;59.336;17.998;2023-02-13T07:44:59;52228.88;;;-145.37;93.40
13486;BME280;6815;59.336;17.998;2023-02-13T07:47:24;52240.88;;;-145.37;93.19
13486;BME280;6815;59.336;17.998;2023-02-13T07:49:50;52248.84;;;-145.37;93.66
13486;BME280;6815;59.336;17.998;2023-02-13T07:52:15;52256.84;;;-145.37;93.33
13486;BME280;6815;59.336;17.998;2023-02-13T07:54:40;52252.84;;;-145.37;93.30
13486;BME280;6815;59.336;17.998;2023-02-13T07:57:15;52218.91;;;-145.37;93.28
13486;BME280;6815;59.336;17.998;2023-02-13T07:59:40;52228.88;;;-145.37;93.10
13486;BME280;6815;59.336;17.998;2023-02-13T08:02:10;52228.88;;;-145.37;93.27
13486;BME280;6815;59.336;17.998;2023-02-13T08:04:36;52198.94;;;-145.37;93.39
13486;BME280;6815;59.336;17.998;2023-02-13T08:07:02;52234.88;;;-145.37;92.99
13486;BME280;6815;59.336;17.998;2023-02-13T08:09:27;52230.88;;;-145.37;92.95
13486;BME280;6815;59.336;17.998;2023-02-13T08:12:12;52198.94;;;-145.37;92.99
13486;BME280;6815;59.336;17.998;2023-02-13T08:14:37;52246.84;;;-145.37;93.11
13486;BME280;6815;59.336;17.998;2023-02-13T08:17:04;52232.88;;;-145.37;92.93
13486;BME280;6815;59.336;17.998;2023-02-13T08:19:30;52196.94;;;-145.37;92.72
13486;BME280;6815;59.336;17.998;2023-02-13T08:21:55;52260.84;;;-145.37;92.57
13486;BME280;6815;59.336;17.998;2023-02-13T08:24:21;52252.84;;;-145.37;92.55
13486;BME280;6815;59.336;17.998;2023-02-13T08:26:47;52234.88;;;-145.37;91.94
13486;BME280;6815;59.336;17.998;2023-02-13T08:29:13;52266.81;;;-145.37;92.22
13486;BME280;6815;59.336;17.998;2023-02-13T08:31:38;52332.69;;;-145.37;91.93
13486;BME280;6815;59.336;17.998;2023-02-13T08:34:04;52184.97;;;-145.37;91.93
13486;BME280;6815;59.336;17.998;2023-02-13T08:36:30;52240.88;;;-145.37;91.75
13486;BME280;6815;59.336;17.998;2023-02-13T08:38:55;52230.88;;;-145.37;91.35
13486;BME280;6815;59.336;17.998;2023-02-13T08:41:21;52232.88;;;-145.37;91.52
13486;BME280;6815;59.336;17.998;2023-02-13T08:43:48;52220.91;;;-145.37;91.10
13486;BME280;6815;59.336;17.998;2023-02-13T08:46:14;52230.88;;;-145.37;90.84
13486;BME280;6815;59.336;17.998;2023-02-13T08:48:39;52204.94;;;-145.37;90.82
13486;BME280;6815;59.336;17.998;2023-02-13T08:51:06;52252.84;;;-145.37;90.89
13486;BME280;6815;59.336;17.998;2023-02-13T08:53:33;52212.91;;;-145.37;90.45
13486;BME280;6815;59.336;17.998;2023-02-13T08:55:59;52230.88;;;-145.37;90.31
13486;BME280;6815;59.336;17.998;2023-02-13T08:58:25;52214.91;;;-145.37;90.48
13486;BME280;6815;59.336;17.998;2023-02-13T09:00:51;52232.88;;;-145.37;90.21
13486;BME280;6815;59.336;17.998;2023-02-13T09:03:16;52228.88;;;-145.37;89.95
13486;BME280;6815;59.336;17.998;2023-02-13T09:05:42;52246.84;;;-145.37;89.46
13486;BME280;6815;59.336;17.998;2023-02-13T09:08:07;52234.88;;;-145.37;89.40
13486;BME280;6815;59.336;17.998;2023-02-13T09:10:36;52274.81;;;-145.37;88.94
13486;BME280;6815;59.336;17.998;2023-02-13T09:13:02;52214.91;;;-145.37;88.83
13486;BME280;6815;59.336;17.998;2023-02-13T09:15:28;52204.94;;;-145.37;88.38
13486;BME280;6815;59.336;17.998;2023-02-13T09:17:54;52262.81;;;-145.37;87.75
13486;BME280;6815;59.336;17.998;2023-02-13T09:20:19;52250.84;;;-145.37;87.53
13486;BME280;6815;59.336;17.998;2023-02-13T09:22:45;52258.84;;;-145.37;87.04
13486;BME280;6815;59.336;17.998;2023-02-13T09:25:10;52240.88;;;-145.37;86.76
13486;BME280;6815;59.336;17.998;2023-02-13T09:27:36;52260.84;;;-145.37;86.79
13486;BME280;6815;59.336;17.998;2023-02-13T09:30:07;52224.91;;;-145.37;86.04
13486;BME280;6815;59.336;17.998;2023-02-13T09:32:33;52256.84;;;-145.37;85.46
13486;BME280;6815;59.336;17.998;2023-02-13T09:34:59;52244.84;;;-145.37;85.47
13486;BME280;6815;59.336;17.998;2023-02-13T09:37:25;52254.84;;;-145.37;85.51
13486;BME280;6815;59.336;17.998;2023-02-13T09:39:52;52272.81;;;-145.37;85.47
13486;BME280;6815;59.336;17.998;2023-02-13T09:42:27;52252.84;;;-145.37;84.71
13486;BME280;6815;59.336;17.998;2023-02-13T09:44:57;52232.88;;;-145.37;84.58
13486;BME280;6815;59.336;17.998;2023-02-13T09:47:31;52280.78;;;-145.37;84.39
13486;BME280;6815;59.336;17.998;2023-02-13T09:52:48;52248.84;;;-145.37;83.78
13486;BME280;6815;59.336;17.998;2023-02-13T09:55:24;52246.84;;;-145.37;84.01
13486;BME280;6815;59.336;17.998;2023-02-13T10:00:33;52238.88;;;-145.37;83.36
13486;BME280;6815;59.336;17.998;2023-02-13T10:09:00;52262.81;;;-145.37;83.33
13486;BME280;6815;59.336;17.998;2023-02-13T10:16:59;52294.75;;;-145.37;82.29
13486;BME280;6815;59.336;17.998;2023-02-13T10:22:01;52276.81;;;-145.37;82.28
13486;BME280;6815;59.336;17.998;2023-02-13T10:27:48;52212.91;;;-145.37;82.04
13486;BME280;6815;59.336;17.998;2023-02-13T10:29:57;52260.84;;;-145.37;82.00
13486;BME280;6815;59.336;17.998;2023-02-13T10:35:19;52214.91;;;-145.37;81.43
13486;BME280;6815;59.336;17.998;2023-02-13T10:37:48;52248.84;;;-145.37;80.98
13486;BME280;6815;59.336;17.998;2023-02-13T10:40:30;52296.75;;;-145.37;80.49
13486;BME280;6815;59.336;17.998;2023-02-13T10:43:09;52270.81;;;-145.37;80.62
13486;BME280;6815;59.336;17.998;2023-02-13T10:45:45;52256.84;;;-145.37;80.05
13486;BME280;6815;59.336;17.998;2023-02-13T10:48:59;52264.81;;;-145.37;80.24
13486;BME280;6815;59.336;17.998;2023-02-13T10:51:32;52232.88;;;-145.37;79.77
13486;BME280;6815;59.336;17.998;2023-02-13T10:54:20;52232.88;;;-145.37;79.50
13486;BME280;6815;59.336;17.998;2023-02-13T10:57:10;52218.91;;;-145.37;79.59
13486;BME280;6815;59.336;17.998;2023-02-13T11:00:07;52268.81;;;-145.37;79.10
13486;BME280;6815;59.336;17.998;2023-02-13T11:02:32;52206.94;;;-145.37;78.82
13486;BME280;6815;59.336;17.998;2023-02-13T11:05:15;52210.91;;;-145.37;79.10
13486;BME280;6815;59.336;17.998;2023-02-13T11:07:45;52244.84;;;-145.37;79.07
13486;BME280;6815;59.336;17.998;2023-02-13T11:10:22;52250.84;;;-145.37;78.97
13486;BME280;6815;59.336;17.998;2023-02-13T11:12:48;52244.84;;;-145.37;78.82
13486;BME280;6815;59.336;17.998;2023-02-13T11:15:23;52226.91;;;-145.37;78.17
13486;BME280;6815;59.336;17.998;2023-02-13T11:17:52;52264.81;;;-145.37;77.87
13486;BME280;6815;59.336;17.998;2023-02-13T11:26:00;52230.88;;;-145.37;77.94
13486;BME280;6815;59.336;17.998;2023-02-13T11:28:30;52262.81;;;-145.37;77.81
13486;BME280;6815;59.336;17.998;2023-02-13T11:31:30;52244.84;;;-145.37;77.52
13486;BME280;6815;59.336;17.998;2023-02-13T11:33:57;52258.84;;;-145.37;76.94
13486;BME280;6815;59.336;17.998;2023-02-13T11:36:32;52276.81;;;-145.37;76.49
13486;BME280;6815;59.336;17.998;2023-02-13T11:39:18;52252.84;;;-145.37;76.38
13486;BME280;6815;59.336;17.998;2023-02-13T11:41:46;52216.91;;;-145.37;76.06
13486;BME280;6815;59.336;17.998;2023-02-13T11:44:31;52244.84;;;-145.37;76.08
13486;BME280;6815;59.336;17.998;2023-02-13T11:47:00;52254.84;;;-145.37;75.57
13486;BME280;6815;59.336;17.998;2023-02-13T11:49:29;52242.88;;;-145.37;75.83
13486;BME280;6815;59.336;17.998;2023-02-13T11:52:00;52242.88;;;-145.37;75.37
13486;BME280;6815;59.336;17.998;2023-02-13T11:57:22;52248.84;;;-145.37;75.06
13486;BME280;6815;59.336;17.998;2023-02-13T11:59:50;52284.78;;;-145.37;75.27
13486;BME280;6815;59.336;17.998;2023-02-13T12:04:46;52242.88;;;-145.37;74.44
13486;BME280;6815;59.336;17.998;2023-02-13T12:09:43;52274.81;;;-145.37;74.65
13486;BME280;6815;59.336;17.998;2023-02-13T12:12:17;52302.75;;;-145.37;74.28
13486;BME280;6815;59.336;17.998;2023-02-13T12:14:45;52256.84;;;-145.37;74.29
13486;BME280;6815;59.336;17.998;2023-02-13T12:17:16;52274.81;;;-145.37;73.81
13486;BME280;6815;59.336;17.998;2023-02-13T12:19:47;52248.84;;;-145.37;74.21
13486;BME280;6815;59.336;17.998;2023-02-13T12:25:18;52246.84;;;-145.37;73.66
13486;BME280;6815;59.336;17.998;2023-02-13T12:28:09;52214.91;;;-145.37;73.26
13486;BME280;6815;59.336;17.998;2023-02-13T12:30:52;52248.84;;;-145.37;72.96
13486;BME280;6815;59.336;17.998;2023-02-13T12:33:43;52268.81;;;-145.37;72.65
13486;BME280;6815;59.336;17.998;2023-02-13T12:36:17;52250.84;;;-145.37;73.10
13486;BME280;6815;59.336;17.998;2023-02-13T12:41:59;52250.84;;;-145.37;72.65
13486;BME280;6815;59.336;17.998;2023-02-13T12:53:36;52264.81;;;-145.37;72.37
13486;BME280;6815;59.336;17.998;2023-02-13T13:04:12;52260.84;;;-145.37;71.90
13486;BME280;6815;59.336;17.998;2023-02-13T13:06:56;52246.84;;;-145.37;71.91
13486;BME280;6815;59.336;17.998;2023-02-13T13:23:46;52244.84;;;-145.37;71.71
13486;BME280;6815;59.336;17.998;2023-02-13T13:28:58;52256.84;;;-145.37;71.19
13486;BME280;6815;59.336;17.998;2023-02-13T13:31:27;52192.97;;;-145.37;70.83
13486;BME280;6815;59.336;17.998;2023-02-13T13:33:57;52232.88;;;-145.37;71.03
13486;BME280;6815;59.336;17.998;2023-02-13T13:37:04;52240.88;;;-145.37;70.83
13486;BME280;6815;59.336;17.998;2023-02-13T13:39:39;52258.84;;;-145.37;70.91
13486;BME280;6815;59.336;17.998;2023-02-13T13:52:27;52212.91;;;-145.37;70.97
13486;BME280;6815;59.336;17.998;2023-02-13T13:54:55;52256.84;;;-145.37;70.89
13486;BME280;6815;59.336;17.998;2023-02-13T13:57:24;52246.84;;;-145.37;70.50
13486;BME280;6815;59.336;17.998;2023-02-13T14:00:21;52280.78;;;-145.37;70.86
13486;BME280;6815;59.336;17.998;2023-02-13T14:02:49;52196.94;;;-145.37;70.50
13486;BME280;6815;59.336;17.998;2023-02-13T14:05:29;52252.84;;;-145.37;70.42
13486;BME280;6815;59.336;17.998;2023-02-13T14:08:00;52248.84;;;-145.37;70.19
13486;BME280;6815;59.336;17.998;2023-02-13T14:18:03;52216.91;;;-145.37;70.86
13486;BME280;6815;59.336;17.998;2023-02-13T14:26:05;52212.91;;;-145.37;70.36
13486;BME280;6815;59.336;17.998;2023-02-13T14:28:34;52216.91;;;-145.37;70.63
13486;BME280;6815;59.336;17.998;2023-02-13T14:31:06;52232.88;;;-145.37;70.39
13486;BME280;6815;59.336;17.998;2023-02-13T14:33:33;52262.81;;;-145.37;70.11
13486;BME280;6815;59.336;17.998;2023-02-13T14:36:06;52288.78;;;-145.37;70.32
13486;BME280;6815;59.336;17.998;2023-02-13T14:38:33;52200.94;;;-145.37;70.03
13486;BME280;6815;59.336;17.998;2023-02-13T14:41:00;52254.84;;;-145.37;70.16
13486;BME280;6815;59.336;17.998;2023-02-13T14:43:38;52288.78;;;-145.37;70.28
13486;BME280;6815;59.336;17.998;2023-02-13T14:46:21;52242.88;;;-145.37;70.13
13486;BME280;6815;59.336;17.998;2023-02-13T14:49:10;52280.78;;;-145.37;70.11
13486;BME280;6815;59.336;17.998;2023-02-13T14:51:39;52230.88;;;-145.37;70.13
13486;BME280;6815;59.336;17.998;2023-02-13T14:54:14;52264.81;;;-145.37;70.04
13486;BME280;6815;59.336;17.998;2023-02-13T14:56:44;52256.84;;;-145.37;70.37
13486;BME280;6815;59.336;17.998;2023-02-13T14:59:14;52238.88;;;-145.37;70.19
13486;BME280;6815;59.336;17.998;2023-02-13T15:04:39;52272.81;;;-145.37;70.25
13486;BME280;6815;59.336;17.998;2023-02-13T15:07:06;52264.81;;;-145.37;70.25
13486;BME280;6815;59.336;17.998;2023-02-13T15:09:39;52256.84;;;-145.37;70.60
13486;BME280;6815;59.336;17.998;2023-02-13T15:12:26;52238.88;;;-145.37;70.79
13486;BME280;6815;59.336;17.998;2023-02-13T15:14:52;52268.81;;;-145.37;70.80
13486;BME280;6815;59.336;17.998;2023-02-13T15:17:23;52266.81;;;-145.37;71.03
13486;BME280;6815;59.336;17.998;2023-02-13T15:19:52;52264.81;;;-145.37;70.91
13486;BME280;6815;59.336;17.998;2023-02-13T15:24:50;52252.84;;;-145.37;71.04